createdAt,value
2023-01-30T00:02:24.588Z,16.53
2023-01-30T00:06:26.886Z,16.63
2023-01-30T00:10:29.547Z,16.40
2023-01-30T00:14:29.701Z,16.23
2023-01-30T00:18:29.960Z,16.70
2023-01-30T00:22:33.153Z,15.90
2023-01-30T00:26:35.974Z,16.23
2023-01-30T00:30:36.132Z,15.70
2023-01-30T00:34:36.402Z,15.43
2023-01-30T00:38:36.976Z,15.70
2023-01-30T00:42:55.107Z,16.33
2023-01-30T00:47:10.437Z,16.77
2023-01-30T00:51:10.560Z,16.00
2023-01-30T00:55:12.230Z,16.43
2023-01-30T00:59:14.880Z,16.30
2023-01-30T01:03:15.044Z,15.77
2023-01-30T01:07:17.269Z,15.90
2023-01-30T01:11:24.658Z,17.03
2023-01-30T01:15:29.494Z,16.43
2023-01-30T01:19:29.727Z,15.93
2023-01-30T01:23:29.907Z,16.43
2023-01-30T01:27:31.324Z,16.27
2023-01-30T01:31:34.623Z,16.03
2023-01-30T01:35:34.829Z,16.03
2023-01-30T01:39:47.103Z,14.67
2023-01-30T01:44:06.993Z,16.30
2023-01-30T01:48:20.741Z,14.67
2023-01-30T01:52:21.611Z,15.47
2023-01-30T01:56:24.204Z,15.13
2023-01-30T02:00:25.113Z,15.40
2023-01-30T02:04:43.787Z,14.53
2023-01-30T02:08:51.767Z,14.47
2023-01-30T02:12:53.762Z,15.13
2023-01-30T02:16:55.185Z,14.33
2023-01-30T02:21:30.751Z,14.27
2023-01-30T02:26:21.920Z,13.77
2023-01-30T02:31:10.907Z,14.03
2023-01-30T02:35:26.453Z,13.90
2023-01-30T02:39:44.225Z,14.37
2023-01-30T02:43:58.933Z,14.00
2023-01-30T02:48:06.579Z,14.83
2023-01-30T02:52:10.990Z,14.13
2023-01-30T02:56:11.093Z,13.77
2023-01-30T03:00:14.085Z,14.43
2023-01-30T03:04:50.094Z,13.73
2023-01-30T03:09:09.320Z,13.70
2023-01-30T03:13:22.419Z,13.23
2023-01-30T03:17:27.557Z,13.40
2023-01-30T03:21:30.543Z,13.50
2023-01-30T03:25:31.597Z,13.47
2023-01-30T03:29:31.748Z,13.17
2023-01-30T03:33:31.859Z,12.13
2023-01-30T03:37:35.013Z,13.37
2023-01-30T03:41:35.171Z,14.20
2023-01-30T03:45:36.415Z,13.10
2023-01-30T03:49:36.587Z,13.23
2023-01-30T03:53:39.382Z,12.97
2023-01-30T03:57:39.747Z,14.10
2023-01-30T04:01:40.317Z,13.30
2023-01-30T04:05:41.381Z,14.60
2023-01-30T04:09:44.487Z,12.93
2023-01-30T04:13:45.239Z,13.70
2023-01-30T04:17:47.919Z,14.13
2023-01-30T04:22:06.879Z,12.80
2023-01-30T04:26:11.091Z,12.97
2023-01-30T04:30:14.827Z,12.97
2023-01-30T04:34:15.800Z,13.00
2023-01-30T04:38:16.391Z,12.97
2023-01-30T04:42:19.195Z,12.70
2023-01-30T04:46:38.038Z,12.10
2023-01-30T04:50:38.968Z,12.07
2023-01-30T04:54:40.134Z,12.23
2023-01-30T04:58:43.008Z,11.37
2023-01-30T05:02:43.721Z,12.73
2023-01-30T05:06:44.133Z,12.50
2023-01-30T05:10:44.382Z,11.97
2023-01-30T05:14:46.995Z,11.37
2023-01-30T05:18:47.484Z,12.03
2023-01-30T05:22:47.701Z,11.47
2023-01-30T05:26:47.746Z,12.40
2023-01-30T05:30:50.417Z,11.57
2023-01-30T05:34:52.371Z,12.17
2023-01-30T05:38:52.565Z,11.27
2023-01-30T05:42:52.567Z,11.43
2023-01-30T05:46:55.321Z,11.37
2023-01-30T05:50:55.844Z,10.67
2023-01-30T05:54:56.258Z,11.67
2023-01-30T05:58:58.285Z,11.53
2023-01-30T06:03:01.141Z,11.40
2023-01-30T06:07:01.323Z,11.47
2023-01-30T06:11:04.020Z,10.67
2023-01-30T06:15:04.358Z,10.27
2023-01-30T06:19:07.125Z,10.57
2023-01-30T06:23:07.209Z,11.13
2023-01-30T06:27:07.448Z,11.50
2023-01-30T06:31:10.423Z,10.40
2023-01-30T06:35:13.672Z,10.70
2023-01-30T06:39:14.057Z,10.70
2023-01-30T06:43:14.407Z,11.53
2023-01-30T06:47:14.488Z,10.47
2023-01-30T06:51:17.260Z,10.90
2023-01-30T06:55:21.024Z,10.70
2023-01-30T06:59:21.300Z,11.63
2023-01-30T07:03:22.548Z,11.00
2023-01-30T07:07:25.239Z,10.83
2023-01-30T07:11:25.312Z,11.53
2023-01-30T07:15:25.417Z,10.60
2023-01-30T07:19:25.806Z,12.37
2023-01-30T07:23:28.598Z,11.90
2023-01-30T07:27:29.105Z,11.87
2023-01-30T07:31:29.683Z,11.30
2023-01-30T07:35:36.846Z,11.13
2023-01-30T07:39:39.686Z,10.90
2023-01-30T07:43:40.016Z,11.17
2023-01-30T07:47:40.187Z,11.00
2023-01-30T07:51:40.353Z,10.37
2023-01-30T07:55:43.754Z,10.23
2023-01-30T07:59:56.627Z,11.13
2023-01-30T08:04:34.339Z,11.30
2023-01-30T08:09:06.751Z,10.07
2023-01-30T08:13:21.272Z,10.40
2023-01-30T08:17:40.680Z,9.90
2023-01-30T08:21:47.440Z,9.50
2023-01-30T08:25:47.626Z,10.10
2023-01-30T08:29:58.434Z,9.47
2023-01-30T08:34:01.640Z,9.67
2023-01-30T08:38:03.567Z,9.30
2023-01-30T08:42:03.994Z,9.90
2023-01-30T08:46:07.433Z,8.40
2023-01-30T08:50:08.714Z,9.40
2023-01-30T08:54:10.276Z,9.63
2023-01-30T08:58:10.830Z,8.90
2023-01-30T09:02:16.542Z,9.90
2023-01-30T09:06:16.906Z,10.03
2023-01-30T09:10:17.984Z,8.60
2023-01-30T09:14:19.947Z,7.90
2023-01-30T09:18:22.731Z,7.90
2023-01-30T09:22:22.810Z,7.50
2023-01-30T09:26:22.893Z,8.50
2023-01-30T09:30:23.342Z,7.57
2023-01-30T09:34:28.594Z,8.07
2023-01-30T09:38:28.959Z,7.37
2023-01-30T09:43:11.286Z,7.47
2023-01-30T09:47:16.913Z,7.60
2023-01-30T09:51:46.232Z,7.00
2023-01-30T09:55:46.885Z,6.33
2023-01-30T10:00:00.621Z,6.40
2023-01-30T10:04:16.421Z,6.27
2023-01-30T10:08:48.786Z,5.97
2023-01-30T10:13:05.360Z,6.70
2023-01-30T10:17:32.728Z,6.70
2023-01-30T10:21:50.353Z,6.80
2023-01-30T10:25:58.546Z,6.67
2023-01-30T10:30:04.073Z,7.13
2023-01-30T10:34:09.249Z,7.30
2023-01-30T10:38:22.765Z,6.97
2023-01-30T10:42:34.883Z,7.23
2023-01-30T10:46:55.765Z,7.70
2023-01-30T10:51:01.901Z,5.93
2023-01-30T10:55:18.127Z,6.50
2023-01-30T10:59:38.635Z,6.33
2023-01-30T11:03:48.066Z,6.67
2023-01-30T11:07:52.003Z,6.67
2023-01-30T11:11:55.705Z,6.57
2023-01-30T11:16:02.468Z,5.90
2023-01-30T11:20:14.711Z,6.20
2023-01-30T11:24:21.882Z,6.10
2023-01-30T11:28:22.243Z,6.70
2023-01-30T11:32:30.747Z,6.20
2023-01-30T11:36:39.052Z,5.33
2023-01-30T11:40:42.740Z,5.87
2023-01-30T11:44:44.957Z,5.47
2023-01-30T11:49:02.430Z,7.17
2023-01-30T11:53:30.959Z,8.00
2023-01-30T11:57:31.481Z,11.93
2023-01-30T12:01:35.248Z,10.30
2023-01-30T12:05:42.911Z,6.03
2023-01-30T12:09:43.096Z,5.80
2023-01-30T12:13:48.413Z,5.67
2023-01-30T12:17:59.153Z,5.97
2023-01-30T12:22:12.597Z,6.00
2023-01-30T12:26:23.064Z,4.77
2023-01-30T12:30:42.789Z,5.70
2023-01-30T12:34:45.651Z,5.63
2023-01-30T12:39:15.653Z,6.27
2023-01-30T12:43:49.042Z,5.40
2023-01-30T12:48:16.964Z,4.83
2023-01-30T12:53:01.845Z,5.33
2023-01-30T12:57:19.981Z,5.97
2023-01-30T13:01:32.931Z,5.10
2023-01-30T13:05:44.740Z,5.73
2023-01-30T13:10:14.057Z,5.33
2023-01-30T13:14:33.661Z,4.60
2023-01-30T13:18:43.309Z,5.50
2023-01-30T13:22:52.437Z,5.20
2023-01-30T13:26:55.666Z,5.67
2023-01-30T13:30:59.916Z,5.80
2023-01-30T13:35:03.724Z,5.73
2023-01-30T13:39:13.530Z,5.37
2023-01-30T13:43:24.048Z,5.50
2023-01-30T13:47:51.969Z,5.67
2023-01-30T13:52:02.662Z,6.43
2023-01-30T13:56:39.830Z,4.93
2023-01-30T14:00:39.309Z,5.33
2023-01-30T14:04:57.164Z,5.30
2023-01-30T14:09:25.270Z,4.83
2023-01-30T14:13:32.132Z,5.70
2023-01-30T14:17:33.406Z,5.40
2023-01-30T14:21:36.766Z,5.23
2023-01-30T14:25:58.497Z,6.17
2023-01-30T14:29:59.615Z,6.00
2023-01-30T14:33:59.903Z,6.03
2023-01-30T14:38:20.786Z,5.70
2023-01-30T14:42:27.339Z,6.03
2023-01-30T14:46:54.527Z,5.30
2023-01-30T14:51:20.430Z,5.30
2023-01-30T14:55:29.702Z,4.60
2023-01-30T14:59:35.108Z,6.70
2023-01-30T15:03:41.258Z,5.63
2023-01-30T15:07:47.219Z,6.03
2023-01-30T15:12:08.729Z,6.20
2023-01-30T15:16:40.255Z,5.73
2023-01-30T15:21:02.520Z,5.10
2023-01-30T15:25:40.483Z,5.23
2023-01-30T15:30:20.461Z,5.10
2023-01-30T15:34:24.099Z,5.97
2023-01-30T15:38:32.347Z,5.57
2023-01-30T15:42:32.504Z,6.40
2023-01-30T15:46:50.266Z,5.40
2023-01-30T15:50:57.983Z,5.47
2023-01-30T15:55:03.109Z,4.97
2023-01-30T15:59:05.832Z,5.77
2023-01-30T16:03:23.456Z,6.40
2023-01-30T16:07:29.335Z,5.50
2023-01-30T16:11:39.390Z,5.67
2023-01-30T16:15:47.436Z,5.97
2023-01-30T16:19:50.210Z,5.77
2023-01-30T16:24:00.387Z,5.43
2023-01-30T16:28:00.509Z,8.33
2023-01-30T16:32:01.124Z,5.17
2023-01-30T16:36:04.684Z,5.77
2023-01-30T16:40:19.199Z,5.70
2023-01-30T16:44:25.359Z,5.93
2023-01-30T16:48:33.936Z,5.57
2023-01-30T16:52:41.361Z,5.80
2023-01-30T16:56:48.037Z,5.70
2023-01-30T17:00:53.840Z,5.70
2023-01-30T17:04:54.027Z,6.27
2023-01-30T17:08:58.986Z,7.10
2023-01-30T17:12:59.722Z,6.83
2023-01-30T17:17:07.672Z,6.63
2023-01-30T17:21:08.235Z,6.60
2023-01-30T17:25:24.942Z,6.30
2023-01-30T17:29:41.296Z,7.30
2023-01-30T17:33:42.362Z,6.37
2023-01-30T17:37:45.280Z,5.97
2023-01-30T17:41:48.709Z,6.70
2023-01-30T17:45:48.786Z,7.60
2023-01-30T17:49:48.843Z,6.73
2023-01-30T17:53:48.875Z,6.60
2023-01-30T17:57:53.152Z,7.63
2023-01-30T18:01:54.995Z,6.97
2023-01-30T18:05:55.125Z,7.60
2023-01-30T18:09:55.455Z,7.40
2023-01-30T18:13:58.112Z,6.80
2023-01-30T18:17:58.631Z,7.37
2023-01-30T18:21:58.869Z,8.03
2023-01-30T18:25:58.973Z,8.27
2023-01-30T18:30:01.650Z,7.73
2023-01-30T18:34:02.006Z,8.37
2023-01-30T18:38:03.034Z,7.77
2023-01-30T18:42:04.253Z,8.73
2023-01-30T18:46:13.265Z,7.13
2023-01-30T18:50:14.333Z,7.40
2023-01-30T18:54:14.624Z,7.23
2023-01-30T18:58:14.688Z,6.20
2023-01-30T19:02:17.750Z,7.53
2023-01-30T19:06:20.414Z,6.27
2023-01-30T19:10:21.346Z,6.07
2023-01-30T19:14:21.861Z,6.70
2023-01-30T19:18:24.535Z,6.40
2023-01-30T19:22:24.932Z,5.60
2023-01-30T19:26:26.522Z,6.10
2023-01-30T19:30:26.654Z,5.93
2023-01-30T19:34:29.395Z,6.00
2023-01-30T19:38:30.479Z,6.80
2023-01-30T19:42:30.619Z,5.97
2023-01-30T19:46:31.479Z,5.87
2023-01-30T19:50:34.231Z,5.80
2023-01-30T19:54:34.528Z,5.80
2023-01-30T19:58:34.759Z,5.30
2023-01-30T20:02:34.855Z,5.30
2023-01-30T20:06:39.781Z,5.80
2023-01-30T20:10:41.806Z,4.87
2023-01-30T20:14:41.917Z,5.77
2023-01-30T20:18:43.237Z,5.63
2023-01-30T20:22:46.434Z,5.63
2023-01-30T20:26:48.502Z,5.50
2023-01-30T20:30:49.050Z,5.53
2023-01-30T20:34:50.065Z,4.77
2023-01-30T20:38:53.768Z,4.83
2023-01-30T20:42:53.804Z,4.80
2023-01-30T20:46:54.955Z,5.27
2023-01-30T20:50:55.332Z,5.43
2023-01-30T20:54:58.047Z,5.83
2023-01-30T20:58:58.855Z,6.10
2023-01-30T21:02:59.190Z,6.10
2023-01-30T21:06:59.289Z,6.60
2023-01-30T21:11:08.280Z,6.50
2023-01-30T21:15:10.471Z,6.43
2023-01-30T21:19:15.271Z,6.70
2023-01-30T21:23:15.495Z,7.50
2023-01-30T21:27:19.616Z,7.23
2023-01-30T21:31:23.577Z,6.80
2023-01-30T21:35:23.696Z,7.00
2023-01-30T21:39:36.658Z,6.63
2023-01-30T21:43:40.135Z,7.00
2023-01-30T21:47:40.290Z,7.10
2023-01-30T21:51:43.072Z,7.33
2023-01-30T21:55:43.156Z,7.20
2023-01-30T21:59:46.087Z,6.90
2023-01-30T22:03:46.382Z,6.67
2023-01-30T22:07:46.471Z,6.40
2023-01-30T22:11:46.722Z,7.47
2023-01-30T22:15:49.405Z,6.40
2023-01-30T22:19:49.495Z,7.23
2023-01-30T22:23:53.833Z,6.73
2023-01-30T22:27:54.343Z,7.00
2023-01-30T22:31:57.225Z,7.00
2023-01-30T22:35:57.566Z,6.43
2023-01-30T22:39:57.619Z,6.13
2023-01-30T22:43:59.811Z,5.93
2023-01-30T22:48:02.412Z,6.27
2023-01-30T22:52:02.462Z,5.70
2023-01-30T22:56:07.711Z,5.50
2023-01-30T23:00:10.390Z,6.97
2023-01-30T23:04:16.182Z,5.50
2023-01-30T23:08:16.164Z,5.73
2023-01-30T23:12:28.470Z,5.60
2023-01-30T23:16:30.787Z,5.50
2023-01-30T23:20:33.491Z,5.90
2023-01-30T23:24:33.560Z,5.67
2023-01-30T23:28:33.866Z,5.70
2023-01-30T23:32:33.878Z,5.80
2023-01-30T23:36:37.689Z,5.30
2023-01-30T23:40:37.702Z,6.33
2023-01-30T23:44:37.748Z,5.90
2023-01-30T23:48:37.692Z,6.30
2023-01-30T23:52:40.283Z,5.73
2023-01-30T23:56:43.291Z,5.60
